createdAt,value
2019-03-24T00:01:48.805Z,6.60
2019-03-24T00:04:19.317Z,6.70
2019-03-24T00:06:49.589Z,6.70
2019-03-24T00:09:19.845Z,6.50
2019-03-24T00:11:50.131Z,6.50
2019-03-24T00:14:20.369Z,6.40
2019-03-24T00:16:50.681Z,6.30
2019-03-24T00:19:21.027Z,6.30
2019-03-24T00:21:51.303Z,6.20
2019-03-24T00:24:21.589Z,6.20
2019-03-24T00:26:51.846Z,6.20
2019-03-24T00:29:22.128Z,6.10
2019-03-24T00:31:52.379Z,6.00
2019-03-24T00:34:22.653Z,6.00
2019-03-24T00:36:52.902Z,5.90
2019-03-24T00:39:23.409Z,5.90
2019-03-24T00:41:53.665Z,5.90
2019-03-24T00:44:23.919Z,5.90
2019-03-24T00:46:54.229Z,5.90
2019-03-24T00:49:25.138Z,5.90
2019-03-24T00:51:55.425Z,5.90
2019-03-24T00:54:25.676Z,5.90
2019-03-24T00:56:55.952Z,5.90
2019-03-24T00:59:26.200Z,5.90
2019-03-24T01:01:56.459Z,5.80
2019-03-24T01:04:26.741Z,5.70
2019-03-24T01:06:56.977Z,5.60
2019-03-24T01:09:27.229Z,5.40
2019-03-24T01:11:57.511Z,5.30
2019-03-24T01:14:27.786Z,5.20
2019-03-24T01:16:58.064Z,5.20
2019-03-24T01:19:28.393Z,5.10
2019-03-24T01:21:58.633Z,5.00
2019-03-24T01:24:28.916Z,5.00
2019-03-24T01:26:59.191Z,5.00
2019-03-24T01:29:29.465Z,4.90
2019-03-24T01:32:00.020Z,4.80
2019-03-24T01:34:30.261Z,4.80
2019-03-24T01:37:02.246Z,4.60
2019-03-24T01:39:32.491Z,4.50
2019-03-24T01:42:02.769Z,4.40
2019-03-24T01:44:34.173Z,4.30
2019-03-24T01:47:04.697Z,4.10
2019-03-24T01:49:34.977Z,4.00
2019-03-24T01:52:05.287Z,3.90
2019-03-24T01:54:36.822Z,3.90
2019-03-24T01:57:07.127Z,3.80
2019-03-24T01:59:37.389Z,3.70
2019-03-24T02:02:07.640Z,3.70
2019-03-24T02:04:37.886Z,3.70
2019-03-24T02:07:08.133Z,3.60
2019-03-24T02:09:38.376Z,3.60
2019-03-24T02:12:08.660Z,3.40
2019-03-24T02:14:38.896Z,3.30
2019-03-24T02:17:09.141Z,3.20
2019-03-24T02:19:39.422Z,3.10
2019-03-24T02:22:09.697Z,3.00
2019-03-24T02:24:39.975Z,3.00
2019-03-24T02:27:10.269Z,3.00
2019-03-24T02:29:40.520Z,2.90
2019-03-24T02:32:10.822Z,2.90
2019-03-24T02:34:41.074Z,2.90
2019-03-24T02:37:11.330Z,2.80
2019-03-24T02:39:41.618Z,2.80
2019-03-24T02:42:11.895Z,2.80
2019-03-24T02:44:42.691Z,2.90
2019-03-24T02:47:13.194Z,2.80
2019-03-24T02:49:43.492Z,2.70
2019-03-24T02:52:13.748Z,2.70
2019-03-24T02:54:43.999Z,2.60
2019-03-24T02:57:14.265Z,2.60
2019-03-24T02:59:44.819Z,2.50
2019-03-24T03:02:15.096Z,2.50
2019-03-24T03:04:45.348Z,2.60
2019-03-24T03:07:15.628Z,2.60
2019-03-24T03:09:45.904Z,2.60
2019-03-24T03:12:16.402Z,2.60
2019-03-24T03:14:46.653Z,2.40
2019-03-24T03:17:16.954Z,2.30
2019-03-24T03:19:47.204Z,2.20
2019-03-24T03:22:17.499Z,2.10
2019-03-24T03:24:47.787Z,2.00
2019-03-24T03:27:18.079Z,1.90
2019-03-24T03:29:48.364Z,1.90
2019-03-24T03:32:18.646Z,1.80
2019-03-24T03:34:48.893Z,1.80
2019-03-24T03:37:19.177Z,1.70
2019-03-24T03:39:49.440Z,1.70
2019-03-24T03:42:19.714Z,1.60
2019-03-24T03:44:50.252Z,1.60
2019-03-24T03:47:20.530Z,1.50
2019-03-24T03:49:50.777Z,1.40
2019-03-24T03:52:21.053Z,1.30
2019-03-24T03:54:51.505Z,1.30
2019-03-24T03:57:21.794Z,1.30
2019-03-24T03:59:52.040Z,1.20
2019-03-24T04:02:23.773Z,1.10
2019-03-24T04:04:54.058Z,1.00
2019-03-24T04:07:24.304Z,1.00
2019-03-24T04:09:54.597Z,1.00
2019-03-24T04:12:24.846Z,0.90
2019-03-24T04:14:55.135Z,0.90
2019-03-24T04:17:25.987Z,0.80
2019-03-24T04:19:56.903Z,0.80
2019-03-24T04:22:27.162Z,0.70
2019-03-24T04:24:57.410Z,0.70
2019-03-24T04:27:27.691Z,0.60
2019-03-24T04:29:57.952Z,0.60
2019-03-24T04:32:28.235Z,0.60
2019-03-24T04:34:58.805Z,0.60
2019-03-24T04:37:29.060Z,0.60
2019-03-24T04:39:59.610Z,0.50
2019-03-24T04:42:29.880Z,0.40
2019-03-24T04:45:00.258Z,0.30
2019-03-24T04:47:30.586Z,0.20
2019-03-24T04:50:00.876Z,0.20
2019-03-24T04:52:31.162Z,0.20
2019-03-24T04:55:01.440Z,0.30
2019-03-24T04:57:31.833Z,0.30
2019-03-24T05:00:03.063Z,0.30
2019-03-24T05:02:33.341Z,0.30
2019-03-24T05:05:04.215Z,0.30
2019-03-24T05:07:34.510Z,0.30
2019-03-24T05:10:14.224Z,0.30
2019-03-24T05:12:44.497Z,0.20
2019-03-24T05:15:14.743Z,0.30
2019-03-24T05:17:44.998Z,0.40
2019-03-24T05:20:15.285Z,0.60
2019-03-24T05:22:46.621Z,0.60
2019-03-24T05:25:17.386Z,0.70
2019-03-24T05:27:47.638Z,0.70
2019-03-24T05:30:17.890Z,0.80
2019-03-24T05:32:48.143Z,0.90
2019-03-24T05:35:19.365Z,1.00
2019-03-24T05:37:49.635Z,1.10
2019-03-24T05:40:19.920Z,1.10
2019-03-24T05:42:50.178Z,1.20
2019-03-24T05:45:20.458Z,1.20
2019-03-24T05:47:50.739Z,1.30
2019-03-24T05:50:21.038Z,1.30
2019-03-24T05:52:51.283Z,1.50
2019-03-24T05:55:21.576Z,1.70
2019-03-24T05:57:51.862Z,1.80
2019-03-24T06:00:22.137Z,2.00
2019-03-24T06:02:52.439Z,2.10
2019-03-24T06:05:22.727Z,2.30
2019-03-24T06:07:53.266Z,2.50
2019-03-24T06:10:23.999Z,2.70
2019-03-24T06:12:54.277Z,2.80
2019-03-24T06:15:24.523Z,3.00
2019-03-24T06:17:55.776Z,3.20
2019-03-24T06:20:26.054Z,3.40
2019-03-24T06:22:56.318Z,3.70
2019-03-24T06:25:26.606Z,3.80
2019-03-24T06:27:56.858Z,3.90
2019-03-24T06:30:27.140Z,4.10
2019-03-24T06:32:57.441Z,4.20
2019-03-24T06:35:28.459Z,4.40
2019-03-24T06:37:58.702Z,4.60
2019-03-24T06:40:28.944Z,4.70
2019-03-24T06:42:59.654Z,4.80
2019-03-24T06:45:29.913Z,4.80
2019-03-24T06:48:00.147Z,4.80
2019-03-24T06:50:30.388Z,4.90
2019-03-24T06:53:00.628Z,5.20
2019-03-24T06:55:30.910Z,5.30
2019-03-24T06:58:01.150Z,5.30
2019-03-24T07:00:31.431Z,5.30
2019-03-24T07:03:01.679Z,5.50
2019-03-24T07:05:32.905Z,5.60
2019-03-24T07:08:03.494Z,5.70
2019-03-24T07:10:33.744Z,5.90
2019-03-24T07:13:03.994Z,6.20
2019-03-24T07:15:34.284Z,6.40
2019-03-24T07:18:08.595Z,6.50
2019-03-24T07:20:36.513Z,6.50
2019-03-24T07:23:06.790Z,6.80
2019-03-24T07:25:37.054Z,7.00
2019-03-24T07:28:07.294Z,7.00
2019-03-24T07:30:37.533Z,7.10
2019-03-24T07:33:07.810Z,7.20
2019-03-24T07:35:38.079Z,7.20
2019-03-24T07:38:08.325Z,7.20
2019-03-24T07:40:38.599Z,7.30
2019-03-24T07:43:08.838Z,7.50
2019-03-24T07:45:39.080Z,7.60
2019-03-24T07:48:18.679Z,7.60
2019-03-24T07:50:41.309Z,7.70
2019-03-24T07:53:11.585Z,7.60
2019-03-24T07:55:41.937Z,7.50
2019-03-24T07:58:12.208Z,7.50
2019-03-24T08:00:43.623Z,7.70
2019-03-24T08:03:13.873Z,7.90
2019-03-24T08:05:44.144Z,8.00
2019-03-24T08:08:14.419Z,7.90
2019-03-24T08:10:44.870Z,7.90
2019-03-24T08:13:15.143Z,8.00
2019-03-24T08:15:45.392Z,8.00
2019-03-24T08:18:15.922Z,8.10
2019-03-24T08:20:47.827Z,8.30
2019-03-24T08:23:18.095Z,8.50
2019-03-24T08:25:48.350Z,8.50
2019-03-24T08:28:18.632Z,8.40
2019-03-24T08:30:48.918Z,8.40
2019-03-24T08:33:19.186Z,8.30
2019-03-24T08:35:49.460Z,8.10
2019-03-24T08:38:19.739Z,8.10
2019-03-24T08:40:49.982Z,8.00
2019-03-24T08:43:20.258Z,7.90
2019-03-24T08:45:50.504Z,7.80
2019-03-24T08:48:20.783Z,7.70
2019-03-24T08:50:51.044Z,7.70
2019-03-24T08:53:21.314Z,7.70
2019-03-24T08:55:51.569Z,7.60
2019-03-24T08:58:21.818Z,7.70
2019-03-24T09:00:52.076Z,7.60
2019-03-24T09:03:22.476Z,7.50
2019-03-24T09:05:52.717Z,7.60
2019-03-24T09:08:22.958Z,7.70
2019-03-24T09:10:53.234Z,7.70
2019-03-24T09:13:23.948Z,7.70
2019-03-24T09:15:54.188Z,7.80
2019-03-24T09:18:24.460Z,7.90
2019-03-24T09:20:54.731Z,8.00
2019-03-24T09:23:25.003Z,8.10
2019-03-24T09:25:55.247Z,8.10
2019-03-24T09:28:26.361Z,8.20
2019-03-24T09:30:56.606Z,8.30
2019-03-24T09:33:26.886Z,8.40
2019-03-24T09:35:57.132Z,8.40
2019-03-24T09:38:27.372Z,8.50
2019-03-24T09:40:57.881Z,8.50
2019-03-24T09:43:28.124Z,8.50
2019-03-24T09:45:58.400Z,8.50
2019-03-24T09:48:28.862Z,8.50
2019-03-24T09:50:59.097Z,8.70
2019-03-24T09:53:29.340Z,8.80
2019-03-24T09:55:59.608Z,8.90
2019-03-24T09:58:29.853Z,9.00
2019-03-24T10:01:00.113Z,9.00
2019-03-24T10:03:30.395Z,9.10
2019-03-24T10:06:00.750Z,9.40
2019-03-24T10:08:31.031Z,9.50
2019-03-24T10:11:01.317Z,9.50
2019-03-24T10:13:31.554Z,9.60
2019-03-24T10:16:01.802Z,9.70
2019-03-24T10:18:32.072Z,9.80
2019-03-24T10:21:02.661Z,10.00
2019-03-24T10:23:32.951Z,10.10
2019-03-24T10:26:03.235Z,10.20
2019-03-24T10:28:33.513Z,10.20
2019-03-24T10:31:03.757Z,10.20
2019-03-24T10:33:34.019Z,10.20
2019-03-24T10:36:04.270Z,10.00
2019-03-24T10:38:34.532Z,9.90
2019-03-24T10:41:04.811Z,9.70
2019-03-24T10:43:35.053Z,9.50
2019-03-24T10:46:05.321Z,9.40
2019-03-24T10:48:35.941Z,9.40
2019-03-24T10:51:06.184Z,9.50
2019-03-24T10:53:36.455Z,9.70
2019-03-24T10:56:06.709Z,10.00
2019-03-24T10:58:36.965Z,10.20
2019-03-24T11:01:07.691Z,10.30
2019-03-24T11:03:37.980Z,10.50
2019-03-24T11:06:08.254Z,10.60
2019-03-24T11:08:38.536Z,10.90
2019-03-24T11:11:08.981Z,11.20
2019-03-24T11:13:39.232Z,11.80
2019-03-24T11:16:09.495Z,12.40
2019-03-24T11:18:39.772Z,12.70
2019-03-24T11:21:10.072Z,12.90
2019-03-24T11:23:40.361Z,13.20
2019-03-24T11:26:10.646Z,13.50
2019-03-24T11:28:40.937Z,13.50
2019-03-24T11:31:11.187Z,13.70
2019-03-24T11:33:41.472Z,13.70
2019-03-24T11:36:11.758Z,13.60
2019-03-24T11:38:42.034Z,13.40
2019-03-24T11:41:12.311Z,13.30
2019-03-24T11:43:42.559Z,13.00
2019-03-24T11:46:12.841Z,13.00
2019-03-24T11:48:43.090Z,13.00
2019-03-24T11:51:13.372Z,12.80
2019-03-24T11:53:43.631Z,12.90
2019-03-24T11:56:13.905Z,13.20
2019-03-24T11:58:44.209Z,13.40
2019-03-24T12:01:14.585Z,13.80
2019-03-24T12:03:45.094Z,14.10
2019-03-24T12:06:15.789Z,14.20
2019-03-24T12:08:46.114Z,14.50
2019-03-24T12:11:16.364Z,15.10
2019-03-24T12:13:46.657Z,15.10
2019-03-24T12:16:17.011Z,15.50
2019-03-24T12:18:47.301Z,15.90
2019-03-24T12:21:17.582Z,15.90
2019-03-24T12:23:47.830Z,15.70
2019-03-24T12:26:18.095Z,15.60
2019-03-24T12:28:48.383Z,15.70
2019-03-24T12:31:18.677Z,15.90
2019-03-24T12:33:48.924Z,15.70
2019-03-24T12:36:19.211Z,15.50
2019-03-24T12:38:49.498Z,15.50
2019-03-24T12:41:19.797Z,15.80
2019-03-24T12:43:50.081Z,15.90
2019-03-24T12:46:20.345Z,16.00
2019-03-24T12:48:50.636Z,16.20
2019-03-24T12:51:20.949Z,16.40
2019-03-24T12:53:51.234Z,16.20
2019-03-24T12:56:21.497Z,15.70
2019-03-24T12:58:51.752Z,15.50
2019-03-24T13:01:22.049Z,16.00
2019-03-24T13:03:54.101Z,16.10
2019-03-24T13:06:24.410Z,16.40
2019-03-24T13:08:54.644Z,16.30
2019-03-24T13:11:24.918Z,16.00
2019-03-24T13:13:55.220Z,15.70
2019-03-24T13:16:25.470Z,15.30
2019-03-24T13:18:55.741Z,15.10
2019-03-24T13:21:26.031Z,14.70
2019-03-24T13:23:56.318Z,14.40
2019-03-24T13:26:26.611Z,14.30
2019-03-24T13:28:56.846Z,14.50
2019-03-24T13:31:27.106Z,14.40
2019-03-24T13:33:57.366Z,14.50
2019-03-24T13:36:27.646Z,14.30
2019-03-24T13:38:58.177Z,14.30
2019-03-24T13:41:28.450Z,13.80
2019-03-24T13:43:59.523Z,13.40
2019-03-24T13:46:29.875Z,13.10
2019-03-24T13:49:00.173Z,12.70
2019-03-24T13:51:30.675Z,12.60
2019-03-24T13:54:00.933Z,12.60
2019-03-24T13:56:31.218Z,12.50
2019-03-24T13:59:01.480Z,12.50
2019-03-24T14:01:31.728Z,12.50
2019-03-24T14:04:01.987Z,12.30
2019-03-24T14:06:32.257Z,12.30
2019-03-24T14:09:04.192Z,12.50
2019-03-24T14:11:34.521Z,12.70
2019-03-24T14:14:04.882Z,12.90
2019-03-24T14:16:35.158Z,12.80
2019-03-24T14:19:05.691Z,12.50
2019-03-24T14:21:35.943Z,12.50
2019-03-24T14:24:06.207Z,12.60
2019-03-24T14:26:36.503Z,12.60
2019-03-24T14:29:06.776Z,12.60
2019-03-24T14:31:37.060Z,12.70
2019-03-24T14:34:07.315Z,12.60
2019-03-24T14:36:37.629Z,12.30
2019-03-24T14:39:08.178Z,12.30
2019-03-24T14:41:38.731Z,12.20
2019-03-24T14:44:08.975Z,12.00
2019-03-24T14:46:39.267Z,11.80
2019-03-24T14:49:09.538Z,11.70
2019-03-24T14:51:39.840Z,11.70
2019-03-24T14:54:10.117Z,11.60
2019-03-24T14:56:40.373Z,11.50
2019-03-24T14:59:10.622Z,11.50
2019-03-24T15:01:40.937Z,11.40
2019-03-24T15:04:11.186Z,11.30
2019-03-24T15:06:41.440Z,11.20
2019-03-24T15:09:11.697Z,11.00
2019-03-24T15:11:41.960Z,10.80
2019-03-24T15:14:12.231Z,10.80
2019-03-24T15:16:42.524Z,10.70
2019-03-24T15:19:12.770Z,10.70
2019-03-24T15:21:43.077Z,10.70
2019-03-24T15:24:13.629Z,10.70
2019-03-24T15:26:44.172Z,10.70
2019-03-24T15:29:14.430Z,10.60
2019-03-24T15:31:44.681Z,10.70
2019-03-24T15:34:14.974Z,10.70
2019-03-24T15:36:45.257Z,10.70
2019-03-24T15:39:16.517Z,10.50
2019-03-24T15:41:46.769Z,10.40
2019-03-24T15:44:17.084Z,10.40
2019-03-24T15:46:47.369Z,10.30
2019-03-24T15:49:17.650Z,10.20
2019-03-24T15:51:47.898Z,10.10
2019-03-24T15:54:18.162Z,10.20
2019-03-24T15:56:48.450Z,10.30
2019-03-24T15:59:18.738Z,10.40
2019-03-24T16:01:49.023Z,10.50
2019-03-24T16:04:19.340Z,10.50
2019-03-24T16:06:49.618Z,10.40
2019-03-24T16:09:19.882Z,10.40
2019-03-24T16:11:50.166Z,10.30
2019-03-24T16:14:20.625Z,10.30
2019-03-24T16:16:50.876Z,10.20
2019-03-24T16:19:21.129Z,10.10
2019-03-24T16:21:51.679Z,10.00
2019-03-24T16:24:22.692Z,9.90
2019-03-24T16:26:52.961Z,9.90
2019-03-24T16:29:23.213Z,10.00
2019-03-24T16:31:53.468Z,10.40
2019-03-24T16:34:23.792Z,11.80
2019-03-24T16:36:54.052Z,13.50
2019-03-24T16:39:24.409Z,14.90
2019-03-24T16:41:54.661Z,15.10
2019-03-24T16:44:24.906Z,15.00
2019-03-24T16:46:55.553Z,14.70
2019-03-24T16:49:26.005Z,14.40
2019-03-24T16:51:56.349Z,14.20
2019-03-24T16:54:26.696Z,14.00
2019-03-24T16:56:56.943Z,13.20
2019-03-24T16:59:27.196Z,12.10
2019-03-24T17:01:57.452Z,11.00
2019-03-24T17:04:27.759Z,10.20
2019-03-24T17:06:58.051Z,9.50
2019-03-24T17:09:28.398Z,9.00
2019-03-24T17:11:58.702Z,8.60
2019-03-24T17:14:29.006Z,8.20
2019-03-24T17:16:59.238Z,7.90
2019-03-24T17:19:29.508Z,7.60
2019-03-24T17:21:59.784Z,7.40
2019-03-24T17:24:30.047Z,7.20
2019-03-24T17:27:00.680Z,7.00
2019-03-24T17:29:30.933Z,6.90
2019-03-24T17:32:01.174Z,6.70
2019-03-24T17:34:31.717Z,6.50
2019-03-24T17:37:01.966Z,6.30
2019-03-24T17:39:32.312Z,6.10
2019-03-24T17:42:02.584Z,5.90
2019-03-24T17:44:32.935Z,5.80
2019-03-24T17:47:03.211Z,5.70
2019-03-24T17:49:34.350Z,5.50
2019-03-24T17:52:04.923Z,5.30
2019-03-24T17:54:35.252Z,5.10
2019-03-24T17:57:05.783Z,5.00
2019-03-24T17:59:36.132Z,4.80
2019-03-24T18:02:14.207Z,4.70
2019-03-24T18:04:38.711Z,4.50
2019-03-24T18:07:09.000Z,4.30
2019-03-24T18:09:39.286Z,4.20
2019-03-24T18:12:09.638Z,4.00
2019-03-24T18:14:39.922Z,3.90
2019-03-24T18:17:10.452Z,3.80
2019-03-24T18:19:40.690Z,3.70
2019-03-24T18:22:11.858Z,3.60
2019-03-24T18:24:42.552Z,3.60
2019-03-24T18:27:12.798Z,3.50
2019-03-24T18:29:43.094Z,3.50
2019-03-24T18:32:13.364Z,3.40
2019-03-24T18:34:43.634Z,3.30
2019-03-24T18:37:13.885Z,3.20
2019-03-24T18:39:44.248Z,3.10
2019-03-24T18:42:14.642Z,3.10
2019-03-24T18:44:44.882Z,3.00
2019-03-24T18:47:15.181Z,2.90
2019-03-24T18:49:45.488Z,2.90
2019-03-24T18:52:22.558Z,2.80
2019-03-24T18:54:47.700Z,2.70
2019-03-24T18:57:17.956Z,2.60
2019-03-24T18:59:49.168Z,2.50
2019-03-24T19:02:19.417Z,2.50
2019-03-24T19:04:49.718Z,2.50
2019-03-24T19:07:19.966Z,2.40
2019-03-24T19:09:50.292Z,2.40
2019-03-24T19:12:20.569Z,2.40
2019-03-24T19:14:50.855Z,2.30
2019-03-24T19:17:21.388Z,2.30
2019-03-24T19:19:51.668Z,2.20
2019-03-24T19:22:21.936Z,2.20
2019-03-24T19:24:52.210Z,2.10
2019-03-24T19:27:22.452Z,2.00
2019-03-24T19:29:52.727Z,2.00
2019-03-24T19:32:23.734Z,1.90
2019-03-24T19:34:53.974Z,1.80
2019-03-24T19:37:24.495Z,1.80
2019-03-24T19:39:54.777Z,1.70
2019-03-24T19:42:25.016Z,1.70
2019-03-24T19:44:55.295Z,1.60
2019-03-24T19:47:25.570Z,1.50
2019-03-24T19:49:55.816Z,1.50
2019-03-24T19:52:26.106Z,1.40
2019-03-24T19:54:56.363Z,1.40
2019-03-24T19:57:26.684Z,1.40
2019-03-24T19:59:56.921Z,1.30
2019-03-24T20:02:27.195Z,1.30
2019-03-24T20:04:57.469Z,1.20
2019-03-24T20:07:28.041Z,1.20
2019-03-24T20:09:58.356Z,1.10
2019-03-24T20:12:28.589Z,1.10
2019-03-24T20:14:58.869Z,1.10
2019-03-24T20:17:29.183Z,1.00
2019-03-24T20:19:59.466Z,1.00
2019-03-24T20:22:29.982Z,0.90
2019-03-24T20:25:00.360Z,0.90
2019-03-24T20:27:30.686Z,0.90
2019-03-24T20:30:00.976Z,0.90
2019-03-24T20:32:31.251Z,0.90
2019-03-24T20:35:01.621Z,0.80
2019-03-24T20:37:32.136Z,0.70
2019-03-24T20:40:03.451Z,0.70
2019-03-24T20:42:33.781Z,0.80
2019-03-24T20:45:04.790Z,0.70
2019-03-24T20:47:35.138Z,0.70
2019-03-24T20:50:08.786Z,0.60
2019-03-24T20:52:39.059Z,0.60
2019-03-24T20:55:09.340Z,0.60
2019-03-24T20:57:39.602Z,0.60
2019-03-24T21:00:10.103Z,0.60
2019-03-24T21:02:40.388Z,0.60
2019-03-24T21:05:11.412Z,0.60
2019-03-24T21:07:42.019Z,0.60
2019-03-24T21:10:13.757Z,0.60
2019-03-24T21:12:44.030Z,0.60
2019-03-24T21:15:14.299Z,0.60
2019-03-24T21:17:44.553Z,0.60
2019-03-24T21:20:14.835Z,0.50
2019-03-24T21:22:45.080Z,0.50
2019-03-24T21:25:15.408Z,0.50
2019-03-24T21:27:45.671Z,0.40
2019-03-24T21:30:16.595Z,0.40
2019-03-24T21:32:46.840Z,0.30
2019-03-24T21:35:17.091Z,0.30
2019-03-24T21:37:47.342Z,0.30
2019-03-24T21:40:17.590Z,0.30
2019-03-24T21:42:47.859Z,0.30
2019-03-24T21:45:18.135Z,0.50
2019-03-24T21:47:48.418Z,0.80
2019-03-24T21:50:18.659Z,1.00
2019-03-24T21:52:48.947Z,1.20
2019-03-24T21:55:19.478Z,1.30
2019-03-24T21:57:57.319Z,1.40
2019-03-24T22:00:33.469Z,1.50
2019-03-24T22:03:03.802Z,1.50
2019-03-24T22:05:34.088Z,1.50
2019-03-24T22:08:04.371Z,1.40
2019-03-24T22:10:34.620Z,1.30
2019-03-24T22:13:05.350Z,1.10
2019-03-24T22:15:35.637Z,1.00
2019-03-24T22:18:05.903Z,0.90
2019-03-24T22:20:36.153Z,0.90
2019-03-24T22:23:06.429Z,0.90
2019-03-24T22:25:36.748Z,0.80
2019-03-24T22:28:07.026Z,0.80
2019-03-24T22:30:37.354Z,0.80
2019-03-24T22:33:07.892Z,0.70
2019-03-24T22:35:38.136Z,0.60
2019-03-24T22:38:08.415Z,0.50
2019-03-24T22:40:38.673Z,0.50
2019-03-24T22:43:08.918Z,0.50
2019-03-24T22:45:39.214Z,0.40
2019-03-24T22:48:09.484Z,0.40
2019-03-24T22:50:39.741Z,0.40
2019-03-24T22:53:10.001Z,0.40
2019-03-24T22:55:40.325Z,0.30
2019-03-24T22:58:10.613Z,0.40
2019-03-24T23:00:48.013Z,0.40
2019-03-24T23:03:18.300Z,0.50
2019-03-24T23:05:48.614Z,0.60
2019-03-24T23:08:18.869Z,0.70
2019-03-24T23:10:49.196Z,0.90
2019-03-24T23:13:19.760Z,1.10
2019-03-24T23:15:50.005Z,1.20
2019-03-24T23:18:20.354Z,1.40
2019-03-24T23:20:52.602Z,1.60
2019-03-24T23:23:22.744Z,1.70
2019-03-24T23:25:53.067Z,1.80
2019-03-24T23:28:23.358Z,1.90
2019-03-24T23:30:53.699Z,2.00
2019-03-24T23:33:23.971Z,2.00
2019-03-24T23:35:54.243Z,2.10
2019-03-24T23:38:24.528Z,2.00
2019-03-24T23:40:54.803Z,1.90
2019-03-24T23:43:25.241Z,1.80
2019-03-24T23:45:55.520Z,1.70
2019-03-24T23:48:25.765Z,1.60
2019-03-24T23:50:56.028Z,1.40
2019-03-24T23:53:26.867Z,1.40
2019-03-24T23:55:57.146Z,1.30
2019-03-24T23:58:40.001Z,1.20
